sensor_id;sensor_type;location;lat;lon;timestamp;P1;durP1;ratioP1;P2;durP2;ratioP2
42972;SDS011;28610;51.214;6.962;2022-07-10T00:00:03;11.50;;;2.37;;
42972;SDS011;28610;51.214;6.962;2022-07-10T00:02:49;7.93;;;2.43;;
42972;SDS011;28610;51.214;6.962;2022-07-10T00:05:37;11.37;;;2.80;;
42972;SDS011;28610;51.214;6.962;2022-07-10T00:08:22;8.30;;;3.00;;
42972;SDS011;28610;51.214;6.962;2022-07-10T00:11:08;6.87;;;2.50;;
42972;SDS011;28610;51.214;6.962;2022-07-10T00:13:54;9.83;;;2.60;;
42972;SDS011;28610;51.214;6.962;2022-07-10T00:16:39;8.77;;;2.67;;
42972;SDS011;28610;51.214;6.962;2022-07-10T00:19:25;8.43;;;2.50;;
42972;SDS011;28610;51.214;6.962;2022-07-10T00:22:12;7.60;;;2.80;;
42972;SDS011;28610;51.214;6.962;2022-07-10T00:24:57;7.47;;;2.45;;
42972;SDS011;28610;51.214;6.962;2022-07-10T00:27:42;8.13;;;2.67;;
42972;SDS011;28610;51.214;6.962;2022-07-10T00:30:28;8.97;;;2.43;;
42972;SDS011;28610;51.214;6.962;2022-07-10T00:33:14;7.13;;;2.57;;
42972;SDS011;28610;51.214;6.962;2022-07-10T00:35:59;11.00;;;2.93;;
42972;SDS011;28610;51.214;6.962;2022-07-10T00:38:46;5.60;;;2.20;;
42972;SDS011;28610;51.214;6.962;2022-07-10T00:41:31;6.77;;;2.33;;
42972;SDS011;28610;51.214;6.962;2022-07-10T00:44:17;6.83;;;2.50;;
42972;SDS011;28610;51.214;6.962;2022-07-10T00:47:03;10.13;;;2.63;;
42972;SDS011;28610;51.214;6.962;2022-07-10T00:49:49;6.90;;;2.50;;
42972;SDS011;28610;51.214;6.962;2022-07-10T00:52:35;9.03;;;2.47;;
42972;SDS011;28610;51.214;6.962;2022-07-10T00:55:23;5.20;;;2.38;;
42972;SDS011;28610;51.214;6.962;2022-07-10T00:58:09;6.70;;;2.27;;
42972;SDS011;28610;51.214;6.962;2022-07-10T01:00:57;6.60;;;2.30;;
42972;SDS011;28610;51.214;6.962;2022-07-10T01:03:43;12.23;;;2.70;;
42972;SDS011;28610;51.214;6.962;2022-07-10T01:06:29;6.00;;;2.37;;
42972;SDS011;28610;51.214;6.962;2022-07-10T01:09:15;6.50;;;2.33;;
42972;SDS011;28610;51.214;6.962;2022-07-10T01:12:03;10.37;;;2.30;;
42972;SDS011;28610;51.214;6.962;2022-07-10T01:14:49;5.63;;;2.50;;
42972;SDS011;28610;51.214;6.962;2022-07-10T01:17:34;4.60;;;2.40;;
42972;SDS011;28610;51.214;6.962;2022-07-10T01:20:20;8.37;;;2.57;;
42972;SDS011;28610;51.214;6.962;2022-07-10T01:23:07;6.47;;;2.43;;
42972;SDS011;28610;51.214;6.962;2022-07-10T01:25:52;6.77;;;2.60;;
42972;SDS011;28610;51.214;6.962;2022-07-10T01:28:38;10.03;;;2.50;;
42972;SDS011;28610;51.214;6.962;2022-07-10T01:31:24;7.90;;;2.50;;
42972;SDS011;28610;51.214;6.962;2022-07-10T01:34:10;10.13;;;2.60;;
42972;SDS011;28610;51.214;6.962;2022-07-10T01:36:56;10.67;;;2.30;;
42972;SDS011;28610;51.214;6.962;2022-07-10T01:39:43;7.77;;;2.47;;
42972;SDS011;28610;51.214;6.962;2022-07-10T01:42:28;10.70;;;2.67;;
42972;SDS011;28610;51.214;6.962;2022-07-10T01:45:15;6.17;;;2.40;;
42972;SDS011;28610;51.214;6.962;2022-07-10T01:48:02;10.33;;;2.73;;
42972;SDS011;28610;51.214;6.962;2022-07-10T01:50:47;7.17;;;2.60;;
42972;SDS011;28610;51.214;6.962;2022-07-10T01:53:32;5.93;;;2.10;;
42972;SDS011;28610;51.214;6.962;2022-07-10T01:56:19;6.37;;;2.70;;
42972;SDS011;28610;51.214;6.962;2022-07-10T01:59:05;5.17;;;2.20;;
42972;SDS011;28610;51.214;6.962;2022-07-10T02:01:50;8.40;;;2.40;;
42972;SDS011;28610;51.214;6.962;2022-07-10T02:04:36;6.87;;;2.73;;
42972;SDS011;28610;51.214;6.962;2022-07-10T02:07:26;9.03;;;2.33;;
42972;SDS011;28610;51.214;6.962;2022-07-10T02:10:12;9.73;;;2.40;;
42972;SDS011;28610;51.214;6.962;2022-07-10T02:12:58;11.70;;;2.40;;
42972;SDS011;28610;51.214;6.962;2022-07-10T02:15:44;11.00;;;3.00;;
42972;SDS011;28610;51.214;6.962;2022-07-10T02:18:29;9.60;;;2.53;;
42972;SDS011;28610;51.214;6.962;2022-07-10T02:21:15;7.87;;;2.47;;
42972;SDS011;28610;51.214;6.962;2022-07-10T02:24:01;10.07;;;2.40;;
42972;SDS011;28610;51.214;6.962;2022-07-10T02:26:46;8.00;;;2.30;;
42972;SDS011;28610;51.214;6.962;2022-07-10T02:29:33;11.63;;;2.70;;
42972;SDS011;28610;51.214;6.962;2022-07-10T02:32:22;5.63;;;2.13;;
42972;SDS011;28610;51.214;6.962;2022-07-10T02:35:08;9.57;;;2.50;;
42972;SDS011;28610;51.214;6.962;2022-07-10T02:37:53;7.33;;;2.80;;
42972;SDS011;28610;51.214;6.962;2022-07-10T02:40:38;7.73;;;2.20;;
42972;SDS011;28610;51.214;6.962;2022-07-10T02:43:24;9.93;;;2.60;;
42972;SDS011;28610;51.214;6.962;2022-07-10T02:46:11;7.07;;;2.40;;
42972;SDS011;28610;51.214;6.962;2022-07-10T02:48:56;6.90;;;2.30;;
42972;SDS011;28610;51.214;6.962;2022-07-10T02:51:42;9.47;;;2.50;;
42972;SDS011;28610;51.214;6.962;2022-07-10T02:54:27;9.63;;;2.47;;
42972;SDS011;28610;51.214;6.962;2022-07-10T02:57:12;8.30;;;2.23;;
42972;SDS011;28610;51.214;6.962;2022-07-10T02:59:58;8.27;;;2.43;;
42972;SDS011;28610;51.214;6.962;2022-07-10T03:02:45;8.93;;;2.50;;
42972;SDS011;28610;51.214;6.962;2022-07-10T03:05:30;7.83;;;2.03;;
42972;SDS011;28610;51.214;6.962;2022-07-10T03:08:15;7.50;;;2.60;;
42972;SDS011;28610;51.214;6.962;2022-07-10T03:11:01;11.13;;;2.73;;
42972;SDS011;28610;51.214;6.962;2022-07-10T03:13:47;7.47;;;2.40;;
42972;SDS011;28610;51.214;6.962;2022-07-10T03:16:32;8.50;;;2.33;;
42972;SDS011;28610;51.214;6.962;2022-07-10T03:19:19;8.67;;;2.30;;
42972;SDS011;28610;51.214;6.962;2022-07-10T03:22:04;9.17;;;2.70;;
42972;SDS011;28610;51.214;6.962;2022-07-10T03:24:50;8.20;;;2.40;;
42972;SDS011;28610;51.214;6.962;2022-07-10T03:27:35;13.70;;;2.70;;
42972;SDS011;28610;51.214;6.962;2022-07-10T03:30:21;5.40;;;2.20;;
42972;SDS011;28610;51.214;6.962;2022-07-10T03:33:07;6.60;;;2.60;;
42972;SDS011;28610;51.214;6.962;2022-07-10T03:35:54;11.07;;;2.77;;
42972;SDS011;28610;51.214;6.962;2022-07-10T03:38:39;9.57;;;2.50;;
42972;SDS011;28610;51.214;6.962;2022-07-10T03:41:25;7.47;;;2.60;;
42972;SDS011;28610;51.214;6.962;2022-07-10T03:44:10;10.30;;;2.83;;
42972;SDS011;28610;51.214;6.962;2022-07-10T03:46:56;10.93;;;2.83;;
42972;SDS011;28610;51.214;6.962;2022-07-10T03:49:41;11.23;;;2.80;;
42972;SDS011;28610;51.214;6.962;2022-07-10T03:52:28;7.30;;;2.43;;
42972;SDS011;28610;51.214;6.962;2022-07-10T03:55:13;8.00;;;2.50;;
42972;SDS011;28610;51.214;6.962;2022-07-10T03:57:59;9.10;;;3.00;;
42972;SDS011;28610;51.214;6.962;2022-07-10T04:00:46;11.30;;;2.83;;
42972;SDS011;28610;51.214;6.962;2022-07-10T04:03:32;6.30;;;2.67;;
42972;SDS011;28610;51.214;6.962;2022-07-10T04:06:17;9.43;;;3.00;;
42972;SDS011;28610;51.214;6.962;2022-07-10T04:09:04;9.10;;;2.80;;
42972;SDS011;28610;51.214;6.962;2022-07-10T04:11:49;10.10;;;2.50;;
42972;SDS011;28610;51.214;6.962;2022-07-10T04:14:35;12.90;;;2.83;;
42972;SDS011;28610;51.214;6.962;2022-07-10T04:17:20;8.27;;;2.60;;
42972;SDS011;28610;51.214;6.962;2022-07-10T04:20:06;13.00;;;2.70;;
42972;SDS011;28610;51.214;6.962;2022-07-10T04:22:52;8.40;;;2.90;;
42972;SDS011;28610;51.214;6.962;2022-07-10T04:25:39;9.03;;;2.90;;
42972;SDS011;28610;51.214;6.962;2022-07-10T04:28:24;10.60;;;2.70;;
42972;SDS011;28610;51.214;6.962;2022-07-10T04:31:10;6.80;;;2.70;;
42972;SDS011;28610;51.214;6.962;2022-07-10T04:33:55;7.63;;;2.97;;
42972;SDS011;28610;51.214;6.962;2022-07-10T04:36:41;10.50;;;2.90;;
42972;SDS011;28610;51.214;6.962;2022-07-10T04:39:27;10.63;;;2.90;;
42972;SDS011;28610;51.214;6.962;2022-07-10T04:42:14;11.37;;;3.03;;
42972;SDS011;28610;51.214;6.962;2022-07-10T04:44:59;8.73;;;2.90;;
42972;SDS011;28610;51.214;6.962;2022-07-10T04:47:46;10.27;;;2.60;;
42972;SDS011;28610;51.214;6.962;2022-07-10T04:50:31;8.03;;;2.43;;
42972;SDS011;28610;51.214;6.962;2022-07-10T04:53:17;8.60;;;2.40;;
42972;SDS011;28610;51.214;6.962;2022-07-10T04:56:02;6.75;;;2.58;;
42972;SDS011;28610;51.214;6.962;2022-07-10T04:58:49;7.20;;;2.10;;
42972;SDS011;28610;51.214;6.962;2022-07-10T05:01:35;12.27;;;3.00;;
42972;SDS011;28610;51.214;6.962;2022-07-10T05:04:21;12.90;;;2.83;;
42972;SDS011;28610;51.214;6.962;2022-07-10T05:07:07;10.45;;;3.15;;
42972;SDS011;28610;51.214;6.962;2022-07-10T05:09:52;11.88;;;3.47;;
42972;SDS011;28610;51.214;6.962;2022-07-10T05:12:38;12.48;;;2.95;;
42972;SDS011;28610;51.214;6.962;2022-07-10T05:15:25;7.80;;;2.92;;
42972;SDS011;28610;51.214;6.962;2022-07-10T05:18:10;11.68;;;2.70;;
42972;SDS011;28610;51.214;6.962;2022-07-10T05:20:56;7.93;;;2.70;;
42972;SDS011;28610;51.214;6.962;2022-07-10T05:23:41;10.23;;;2.80;;
42972;SDS011;28610;51.214;6.962;2022-07-10T05:26:27;9.70;;;2.88;;
42972;SDS011;28610;51.214;6.962;2022-07-10T05:29:13;13.43;;;3.22;;
42972;SDS011;28610;51.214;6.962;2022-07-10T05:31:59;10.20;;;2.90;;
42972;SDS011;28610;51.214;6.962;2022-07-10T05:34:45;7.28;;;2.50;;
42972;SDS011;28610;51.214;6.962;2022-07-10T05:37:30;9.57;;;2.80;;
42972;SDS011;28610;51.214;6.962;2022-07-10T05:40:16;12.82;;;3.13;;
42972;SDS011;28610;51.214;6.962;2022-07-10T05:43:02;7.75;;;2.70;;
42972;SDS011;28610;51.214;6.962;2022-07-10T05:45:47;11.18;;;2.70;;
42972;SDS011;28610;51.214;6.962;2022-07-10T05:48:34;10.82;;;2.50;;
42972;SDS011;28610;51.214;6.962;2022-07-10T05:51:20;11.13;;;2.38;;
42972;SDS011;28610;51.214;6.962;2022-07-10T05:54:05;11.40;;;2.58;;
42972;SDS011;28610;51.214;6.962;2022-07-10T05:56:50;7.53;;;2.60;;
42972;SDS011;28610;51.214;6.962;2022-07-10T05:59:36;10.43;;;2.40;;
42972;SDS011;28610;51.214;6.962;2022-07-10T06:02:21;7.50;;;1.92;;
42972;SDS011;28610;51.214;6.962;2022-07-10T06:05:08;10.20;;;2.38;;
42972;SDS011;28610;51.214;6.962;2022-07-10T06:07:54;5.50;;;2.10;;
42972;SDS011;28610;51.214;6.962;2022-07-10T06:10:39;9.75;;;2.85;;
42972;SDS011;28610;51.214;6.962;2022-07-10T06:13:27;9.70;;;2.80;;
42972;SDS011;28610;51.214;6.962;2022-07-10T06:16:12;12.48;;;3.20;;
42972;SDS011;28610;51.214;6.962;2022-07-10T06:18:58;12.60;;;3.90;;
42972;SDS011;28610;51.214;6.962;2022-07-10T06:21:45;12.77;;;3.47;;
42972;SDS011;28610;51.214;6.962;2022-07-10T06:24:30;12.52;;;3.65;;
42972;SDS011;28610;51.214;6.962;2022-07-10T06:27:16;9.82;;;3.22;;
42972;SDS011;28610;51.214;6.962;2022-07-10T06:30:02;7.22;;;2.88;;
42972;SDS011;28610;51.214;6.962;2022-07-10T06:32:48;11.48;;;3.00;;
42972;SDS011;28610;51.214;6.962;2022-07-10T06:35:33;10.55;;;3.10;;
42972;SDS011;28610;51.214;6.962;2022-07-10T06:38:20;12.98;;;3.00;;
42972;SDS011;28610;51.214;6.962;2022-07-10T06:41:05;10.23;;;2.90;;
42972;SDS011;28610;51.214;6.962;2022-07-10T06:43:51;11.23;;;2.92;;
42972;SDS011;28610;51.214;6.962;2022-07-10T06:46:36;9.60;;;2.60;;
42972;SDS011;28610;51.214;6.962;2022-07-10T06:49:22;9.48;;;2.60;;
42972;SDS011;28610;51.214;6.962;2022-07-10T06:52:06;8.13;;;2.90;;
42972;SDS011;28610;51.214;6.962;2022-07-10T06:54:53;10.18;;;2.83;;
42972;SDS011;28610;51.214;6.962;2022-07-10T06:57:39;15.18;;;2.95;;
42972;SDS011;28610;51.214;6.962;2022-07-10T07:00:25;7.95;;;2.72;;
42972;SDS011;28610;51.214;6.962;2022-07-10T07:03:11;12.75;;;2.80;;
42972;SDS011;28610;51.214;6.962;2022-07-10T07:05:56;15.13;;;3.13;;
42972;SDS011;28610;51.214;6.962;2022-07-10T07:08:42;11.43;;;3.20;;
42972;SDS011;28610;51.214;6.962;2022-07-10T07:11:28;10.73;;;2.40;;
42972;SDS011;28610;51.214;6.962;2022-07-10T07:14:14;8.48;;;2.78;;
42972;SDS011;28610;51.214;6.962;2022-07-10T07:16:59;10.77;;;2.85;;
42972;SDS011;28610;51.214;6.962;2022-07-10T07:19:49;7.45;;;2.50;;
42972;SDS011;28610;51.214;6.962;2022-07-10T07:22:52;9.55;;;2.97;;
42972;SDS011;28610;51.214;6.962;2022-07-10T07:25:56;13.55;;;3.00;;
42972;SDS011;28610;51.214;6.962;2022-07-10T07:28:43;7.65;;;2.60;;
42972;SDS011;28610;51.214;6.962;2022-07-10T07:31:28;8.90;;;2.58;;
42972;SDS011;28610;51.214;6.962;2022-07-10T07:34:13;9.15;;;2.70;;
42972;SDS011;28610;51.214;6.962;2022-07-10T07:36:59;10.20;;;2.70;;
42972;SDS011;28610;51.214;6.962;2022-07-10T07:39:44;12.07;;;3.08;;
42972;SDS011;28610;51.214;6.962;2022-07-10T07:42:30;11.55;;;2.80;;
42972;SDS011;28610;51.214;6.962;2022-07-10T07:45:17;12.35;;;3.00;;
42972;SDS011;28610;51.214;6.962;2022-07-10T07:48:02;11.23;;;2.90;;
42972;SDS011;28610;51.214;6.962;2022-07-10T07:50:48;8.32;;;3.38;;
42972;SDS011;28610;51.214;6.962;2022-07-10T07:53:34;11.68;;;2.85;;
42972;SDS011;28610;51.214;6.962;2022-07-10T07:56:19;10.65;;;2.75;;
42972;SDS011;28610;51.214;6.962;2022-07-10T07:59:04;13.85;;;2.80;;
42972;SDS011;28610;51.214;6.962;2022-07-10T08:01:51;8.43;;;2.88;;
42972;SDS011;28610;51.214;6.962;2022-07-10T08:04:37;9.60;;;2.72;;
42972;SDS011;28610;51.214;6.962;2022-07-10T08:07:22;12.73;;;3.10;;
42972;SDS011;28610;51.214;6.962;2022-07-10T08:10:08;13.55;;;3.70;;
42972;SDS011;28610;51.214;6.962;2022-07-10T08:12:56;11.15;;;3.92;;
42972;SDS011;28610;51.214;6.962;2022-07-10T08:15:42;11.13;;;4.07;;
42972;SDS011;28610;51.214;6.962;2022-07-10T08:18:28;12.38;;;3.90;;
42972;SDS011;28610;51.214;6.962;2022-07-10T08:21:14;13.63;;;3.70;;
42972;SDS011;28610;51.214;6.962;2022-07-10T08:23:59;11.80;;;3.25;;
42972;SDS011;28610;51.214;6.962;2022-07-10T08:26:45;11.52;;;3.25;;
42972;SDS011;28610;51.214;6.962;2022-07-10T08:29:30;11.55;;;3.60;;
42972;SDS011;28610;51.214;6.962;2022-07-10T08:32:15;11.38;;;3.75;;
42972;SDS011;28610;51.214;6.962;2022-07-10T08:35:02;12.50;;;4.32;;
42972;SDS011;28610;51.214;6.962;2022-07-10T08:37:48;12.73;;;4.22;;
42972;SDS011;28610;51.214;6.962;2022-07-10T08:40:34;13.50;;;4.93;;
42972;SDS011;28610;51.214;6.962;2022-07-10T08:43:21;18.95;;;5.50;;
42972;SDS011;28610;51.214;6.962;2022-07-10T08:46:07;15.77;;;6.30;;
42972;SDS011;28610;51.214;6.962;2022-07-10T08:48:54;12.30;;;5.53;;
42972;SDS011;28610;51.214;6.962;2022-07-10T08:51:47;12.63;;;5.55;;
42972;SDS011;28610;51.214;6.962;2022-07-10T08:54:39;10.13;;;4.75;;
42972;SDS011;28610;51.214;6.962;2022-07-10T08:57:25;11.32;;;4.90;;
42972;SDS011;28610;51.214;6.962;2022-07-10T09:00:13;12.98;;;5.13;;
42972;SDS011;28610;51.214;6.962;2022-07-10T09:03:00;19.45;;;5.55;;
42972;SDS011;28610;51.214;6.962;2022-07-10T09:05:45;10.90;;;5.65;;
42972;SDS011;28610;51.214;6.962;2022-07-10T09:08:32;10.07;;;5.28;;
42972;SDS011;28610;51.214;6.962;2022-07-10T09:11:19;10.32;;;5.00;;
42972;SDS011;28610;51.214;6.962;2022-07-10T09:14:04;10.35;;;4.80;;
42972;SDS011;28610;51.214;6.962;2022-07-10T09:16:51;12.55;;;4.28;;
42972;SDS011;28610;51.214;6.962;2022-07-10T09:19:37;9.20;;;4.70;;
42972;SDS011;28610;51.214;6.962;2022-07-10T09:22:24;11.82;;;4.32;;
42972;SDS011;28610;51.214;6.962;2022-07-10T09:25:13;9.85;;;4.90;;
42972;SDS011;28610;51.214;6.962;2022-07-10T09:27:59;9.80;;;5.15;;
42972;SDS011;28610;51.214;6.962;2022-07-10T09:30:49;11.45;;;5.05;;
42972;SDS011;28610;51.214;6.962;2022-07-10T09:33:34;12.73;;;5.72;;
42972;SDS011;28610;51.214;6.962;2022-07-10T09:36:21;14.45;;;6.05;;
42972;SDS011;28610;51.214;6.962;2022-07-10T09:39:07;11.15;;;5.63;;
42972;SDS011;28610;51.214;6.962;2022-07-10T09:41:53;13.35;;;5.90;;
42972;SDS011;28610;51.214;6.962;2022-07-10T09:44:39;16.02;;;6.03;;
42972;SDS011;28610;51.214;6.962;2022-07-10T09:47:24;12.77;;;5.97;;
42972;SDS011;28610;51.214;6.962;2022-07-10T09:50:19;12.40;;;5.70;;
42972;SDS011;28610;51.214;6.962;2022-07-10T09:53:07;11.07;;;5.70;;
42972;SDS011;28610;51.214;6.962;2022-07-10T09:55:54;8.85;;;5.63;;
42972;SDS011;28610;51.214;6.962;2022-07-10T09:58:43;13.63;;;5.85;;
42972;SDS011;28610;51.214;6.962;2022-07-10T10:01:34;11.38;;;5.70;;
42972;SDS011;28610;51.214;6.962;2022-07-10T10:04:21;11.90;;;5.75;;
42972;SDS011;28610;51.214;6.962;2022-07-10T10:07:08;14.95;;;5.80;;
42972;SDS011;28610;51.214;6.962;2022-07-10T10:09:58;12.77;;;6.22;;
42972;SDS011;28610;51.214;6.962;2022-07-10T10:12:47;11.23;;;6.20;;
42972;SDS011;28610;51.214;6.962;2022-07-10T10:15:37;17.17;;;7.05;;
42972;SDS011;28610;51.214;6.962;2022-07-10T10:18:23;16.23;;;7.70;;
42972;SDS011;28610;51.214;6.962;2022-07-10T10:21:10;16.75;;;8.52;;
42972;SDS011;28610;51.214;6.962;2022-07-10T10:23:56;16.05;;;8.75;;
42972;SDS011;28610;51.214;6.962;2022-07-10T10:26:42;13.48;;;7.75;;
42972;SDS011;28610;51.214;6.962;2022-07-10T10:29:28;12.80;;;6.82;;
42972;SDS011;28610;51.214;6.962;2022-07-10T10:32:17;14.90;;;7.60;;
42972;SDS011;28610;51.214;6.962;2022-07-10T10:35:02;19.10;;;6.32;;
42972;SDS011;28610;51.214;6.962;2022-07-10T10:37:50;17.15;;;6.47;;
42972;SDS011;28610;51.214;6.962;2022-07-10T10:40:35;10.10;;;5.47;;
42972;SDS011;28610;51.214;6.962;2022-07-10T10:43:21;9.65;;;5.10;;
42972;SDS011;28610;51.214;6.962;2022-07-10T10:46:23;9.77;;;4.75;;
42972;SDS011;28610;51.214;6.962;2022-07-10T10:49:11;10.23;;;4.40;;
42972;SDS011;28610;51.214;6.962;2022-07-10T10:51:56;10.07;;;4.20;;
42972;SDS011;28610;51.214;6.962;2022-07-10T10:58:11;9.77;;;4.32;;
42972;SDS011;28610;51.214;6.962;2022-07-10T11:01:02;7.85;;;3.75;;
42972;SDS011;28610;51.214;6.962;2022-07-10T11:06:59;10.50;;;3.85;;
42972;SDS011;28610;51.214;6.962;2022-07-10T11:09:44;7.45;;;3.30;;
42972;SDS011;28610;51.214;6.962;2022-07-10T11:12:30;8.00;;;3.70;;
42972;SDS011;28610;51.214;6.962;2022-07-10T11:15:35;10.13;;;3.90;;
42972;SDS011;28610;51.214;6.962;2022-07-10T11:18:22;7.97;;;3.97;;
42972;SDS011;28610;51.214;6.962;2022-07-10T11:21:10;11.05;;;3.65;;
42972;SDS011;28610;51.214;6.962;2022-07-10T11:24:09;5.90;;;3.60;;
42972;SDS011;28610;51.214;6.962;2022-07-10T11:27:02;6.80;;;3.83;;
42972;SDS011;28610;51.214;6.962;2022-07-10T11:30:00;9.57;;;5.53;;
42972;SDS011;28610;51.214;6.962;2022-07-10T11:32:45;7.63;;;5.18;;
42972;SDS011;28610;51.214;6.962;2022-07-10T11:35:31;9.35;;;5.40;;
42972;SDS011;28610;51.214;6.962;2022-07-10T11:38:22;8.63;;;4.95;;
42972;SDS011;28610;51.214;6.962;2022-07-10T11:41:12;8.95;;;4.90;;
42972;SDS011;28610;51.214;6.962;2022-07-10T11:44:02;6.65;;;4.30;;
42972;SDS011;28610;51.214;6.962;2022-07-10T11:46:48;6.55;;;4.43;;
42972;SDS011;28610;51.214;6.962;2022-07-10T11:49:34;8.50;;;4.70;;
42972;SDS011;28610;51.214;6.962;2022-07-10T11:52:28;7.60;;;4.70;;
42972;SDS011;28610;51.214;6.962;2022-07-10T11:55:15;6.63;;;4.85;;
42972;SDS011;28610;51.214;6.962;2022-07-10T11:58:01;8.43;;;4.30;;
42972;SDS011;28610;51.214;6.962;2022-07-10T12:00:58;6.47;;;4.57;;
42972;SDS011;28610;51.214;6.962;2022-07-10T12:03:52;8.43;;;4.13;;
42972;SDS011;28610;51.214;6.962;2022-07-10T12:06:41;7.30;;;4.63;;
42972;SDS011;28610;51.214;6.962;2022-07-10T12:09:27;6.45;;;3.85;;
42972;SDS011;28610;51.214;6.962;2022-07-10T12:12:14;8.00;;;3.90;;
42972;SDS011;28610;51.214;6.962;2022-07-10T12:15:00;6.78;;;4.40;;
42972;SDS011;28610;51.214;6.962;2022-07-10T12:17:49;6.25;;;3.92;;
42972;SDS011;28610;51.214;6.962;2022-07-10T12:20:35;9.52;;;4.55;;
42972;SDS011;28610;51.214;6.962;2022-07-10T12:23:22;8.85;;;4.93;;
42972;SDS011;28610;51.214;6.962;2022-07-10T12:26:08;12.20;;;4.82;;
42972;SDS011;28610;51.214;6.962;2022-07-10T12:28:55;10.80;;;4.70;;
42972;SDS011;28610;51.214;6.962;2022-07-10T12:31:42;8.10;;;4.57;;
42972;SDS011;28610;51.214;6.962;2022-07-10T12:34:34;8.75;;;4.70;;
42972;SDS011;28610;51.214;6.962;2022-07-10T12:37:20;10.90;;;4.70;;
42972;SDS011;28610;51.214;6.962;2022-07-10T12:40:07;8.23;;;4.82;;
42972;SDS011;28610;51.214;6.962;2022-07-10T12:43:00;12.10;;;4.45;;
42972;SDS011;28610;51.214;6.962;2022-07-10T12:45:58;10.05;;;4.25;;
42972;SDS011;28610;51.214;6.962;2022-07-10T12:49:02;8.73;;;4.28;;
42972;SDS011;28610;51.214;6.962;2022-07-10T12:51:49;9.05;;;4.45;;
42972;SDS011;28610;51.214;6.962;2022-07-10T12:54:35;11.20;;;4.05;;
42972;SDS011;28610;51.214;6.962;2022-07-10T12:57:22;9.38;;;4.07;;
42972;SDS011;28610;51.214;6.962;2022-07-10T13:00:07;11.27;;;4.40;;
42972;SDS011;28610;51.214;6.962;2022-07-10T13:02:58;12.63;;;4.80;;
42972;SDS011;28610;51.214;6.962;2022-07-10T13:05:45;11.75;;;4.68;;
42972;SDS011;28610;51.214;6.962;2022-07-10T13:08:43;12.38;;;4.85;;
42972;SDS011;28610;51.214;6.962;2022-07-10T13:11:29;11.27;;;4.72;;
42972;SDS011;28610;51.214;6.962;2022-07-10T13:14:14;13.57;;;4.90;;
42972;SDS011;28610;51.214;6.962;2022-07-10T13:17:00;10.05;;;4.65;;
42972;SDS011;28610;51.214;6.962;2022-07-10T13:19:47;13.15;;;6.28;;
42972;SDS011;28610;51.214;6.962;2022-07-10T13:22:32;13.77;;;6.90;;
42972;SDS011;28610;51.214;6.962;2022-07-10T13:25:18;15.15;;;7.05;;
42972;SDS011;28610;51.214;6.962;2022-07-10T13:28:03;15.15;;;6.68;;
42972;SDS011;28610;51.214;6.962;2022-07-10T13:30:49;14.40;;;6.32;;
42972;SDS011;28610;51.214;6.962;2022-07-10T13:33:34;18.27;;;6.68;;
42972;SDS011;28610;51.214;6.962;2022-07-10T13:36:21;15.38;;;6.00;;
42972;SDS011;28610;51.214;6.962;2022-07-10T13:39:07;16.05;;;5.78;;
42972;SDS011;28610;51.214;6.962;2022-07-10T13:41:52;15.68;;;5.90;;
42972;SDS011;28610;51.214;6.962;2022-07-10T13:44:38;12.68;;;5.68;;
42972;SDS011;28610;51.214;6.962;2022-07-10T13:47:23;11.30;;;5.30;;
42972;SDS011;28610;51.214;6.962;2022-07-10T13:50:09;13.05;;;5.15;;
42972;SDS011;28610;51.214;6.962;2022-07-10T13:52:56;11.02;;;5.15;;
42972;SDS011;28610;51.214;6.962;2022-07-10T13:55:42;12.82;;;5.60;;
42972;SDS011;28610;51.214;6.962;2022-07-10T13:58:27;13.20;;;5.05;;
42972;SDS011;28610;51.214;6.962;2022-07-10T14:01:13;8.75;;;4.45;;
42972;SDS011;28610;51.214;6.962;2022-07-10T14:03:58;9.30;;;4.38;;
42972;SDS011;28610;51.214;6.962;2022-07-10T14:06:44;13.23;;;3.95;;
42972;SDS011;28610;51.214;6.962;2022-07-10T14:09:31;13.95;;;4.00;;
42972;SDS011;28610;51.214;6.962;2022-07-10T14:12:16;9.75;;;3.97;;
42972;SDS011;28610;51.214;6.962;2022-07-10T14:15:02;11.02;;;4.20;;
42972;SDS011;28610;51.214;6.962;2022-07-10T14:17:48;12.52;;;3.97;;
42972;SDS011;28610;51.214;6.962;2022-07-10T14:20:34;10.68;;;3.95;;
42972;SDS011;28610;51.214;6.962;2022-07-10T14:23:33;9.20;;;3.90;;
42972;SDS011;28610;51.214;6.962;2022-07-10T14:26:21;9.55;;;3.97;;
42972;SDS011;28610;51.214;6.962;2022-07-10T14:29:07;7.93;;;4.00;;
42972;SDS011;28610;51.214;6.962;2022-07-10T14:31:52;9.13;;;3.70;;
42972;SDS011;28610;51.214;6.962;2022-07-10T14:34:38;10.02;;;3.65;;
42972;SDS011;28610;51.214;6.962;2022-07-10T14:37:24;10.63;;;4.55;;
42972;SDS011;28610;51.214;6.962;2022-07-10T14:40:10;9.55;;;3.90;;
42972;SDS011;28610;51.214;6.962;2022-07-10T14:42:57;11.32;;;4.20;;
42972;SDS011;28610;51.214;6.962;2022-07-10T14:45:42;11.80;;;4.10;;
42972;SDS011;28610;51.214;6.962;2022-07-10T14:48:28;10.20;;;4.22;;
42972;SDS011;28610;51.214;6.962;2022-07-10T14:51:13;11.50;;;4.03;;
42972;SDS011;28610;51.214;6.962;2022-07-10T14:53:59;8.55;;;3.97;;
42972;SDS011;28610;51.214;6.962;2022-07-10T14:56:44;11.60;;;4.13;;
42972;SDS011;28610;51.214;6.962;2022-07-10T14:59:31;10.52;;;3.53;;
42972;SDS011;28610;51.214;6.962;2022-07-10T15:02:17;7.80;;;3.50;;
42972;SDS011;28610;51.214;6.962;2022-07-10T15:05:02;7.15;;;3.33;;
42972;SDS011;28610;51.214;6.962;2022-07-10T15:07:48;6.28;;;2.90;;
42972;SDS011;28610;51.214;6.962;2022-07-10T15:10:33;8.90;;;2.95;;
42972;SDS011;28610;51.214;6.962;2022-07-10T15:13:19;6.28;;;2.90;;
42972;SDS011;28610;51.214;6.962;2022-07-10T15:16:06;6.30;;;2.67;;
42972;SDS011;28610;51.214;6.962;2022-07-10T15:18:52;8.10;;;2.55;;
42972;SDS011;28610;51.214;6.962;2022-07-10T15:21:38;6.72;;;2.97;;
42972;SDS011;28610;51.214;6.962;2022-07-10T15:24:23;3.70;;;2.38;;
42972;SDS011;28610;51.214;6.962;2022-07-10T15:27:08;6.32;;;2.50;;
42972;SDS011;28610;51.214;6.962;2022-07-10T15:29:54;6.68;;;2.53;;
42972;SDS011;28610;51.214;6.962;2022-07-10T15:32:40;6.43;;;2.40;;
42972;SDS011;28610;51.214;6.962;2022-07-10T15:35:26;8.10;;;2.45;;
42972;SDS011;28610;51.214;6.962;2022-07-10T15:38:11;5.45;;;2.30;;
42972;SDS011;28610;51.214;6.962;2022-07-10T15:40:57;7.35;;;2.60;;
42972;SDS011;28610;51.214;6.962;2022-07-10T15:43:42;6.63;;;2.40;;
42972;SDS011;28610;51.214;6.962;2022-07-10T15:46:29;3.92;;;2.40;;
42972;SDS011;28610;51.214;6.962;2022-07-10T15:49:16;7.93;;;2.50;;
42972;SDS011;28610;51.214;6.962;2022-07-10T15:52:01;3.83;;;2.38;;
42972;SDS011;28610;51.214;6.962;2022-07-10T15:54:47;5.05;;;2.30;;
42972;SDS011;28610;51.214;6.962;2022-07-10T15:57:32;4.53;;;2.50;;
42972;SDS011;28610;51.214;6.962;2022-07-10T16:00:18;6.13;;;2.60;;
42972;SDS011;28610;51.214;6.962;2022-07-10T16:03:04;5.63;;;2.45;;
42972;SDS011;28610;51.214;6.962;2022-07-10T16:05:51;5.38;;;2.60;;
42972;SDS011;28610;51.214;6.962;2022-07-10T16:08:36;7.78;;;2.58;;
42972;SDS011;28610;51.214;6.962;2022-07-10T16:11:22;8.43;;;2.58;;
42972;SDS011;28610;51.214;6.962;2022-07-10T16:14:07;6.72;;;2.40;;
42972;SDS011;28610;51.214;6.962;2022-07-10T16:16:53;3.47;;;2.30;;
42972;SDS011;28610;51.214;6.962;2022-07-10T16:19:39;5.00;;;2.45;;
42972;SDS011;28610;51.214;6.962;2022-07-10T16:22:26;4.35;;;2.13;;
42972;SDS011;28610;51.214;6.962;2022-07-10T16:25:12;5.85;;;2.47;;
42972;SDS011;28610;51.214;6.962;2022-07-10T16:28:15;4.47;;;2.40;;
42972;SDS011;28610;51.214;6.962;2022-07-10T16:31:02;4.47;;;2.20;;
42972;SDS011;28610;51.214;6.962;2022-07-10T16:33:47;6.90;;;2.30;;
42972;SDS011;28610;51.214;6.962;2022-07-10T16:36:32;6.45;;;2.40;;
42972;SDS011;28610;51.214;6.962;2022-07-10T16:39:20;4.72;;;2.20;;
42972;SDS011;28610;51.214;6.962;2022-07-10T16:42:05;7.07;;;2.60;;